sensor_id;sensor_type;location;lat;lon;timestamp;temperature;humidity
13344;DHT22;6741;48.964;9.406;2022-07-29T00:01:48;17.70;99.90
13344;DHT22;6741;48.964;9.406;2022-07-29T00:04:15;17.80;99.90
13344;DHT22;6741;48.964;9.406;2022-07-29T00:06:42;17.90;99.90
13344;DHT22;6741;48.964;9.406;2022-07-29T00:09:09;17.90;99.90
13344;DHT22;6741;48.964;9.406;2022-07-29T00:11:37;17.90;99.90
13344;DHT22;6741;48.964;9.406;2022-07-29T00:14:04;17.80;99.90
13344;DHT22;6741;48.964;9.406;2022-07-29T00:16:31;17.70;99.90
13344;DHT22;6741;48.964;9.406;2022-07-29T00:18:58;17.60;99.90
13344;DHT22;6741;48.964;9.406;2022-07-29T00:21:25;17.50;99.90
13344;DHT22;6741;48.964;9.406;2022-07-29T00:23:51;17.50;99.90
13344;DHT22;6741;48.964;9.406;2022-07-29T00:26:18;17.40;99.90
13344;DHT22;6741;48.964;9.406;2022-07-29T00:28:47;17.40;99.90
13344;DHT22;6741;48.964;9.406;2022-07-29T00:31:14;17.30;99.90
13344;DHT22;6741;48.964;9.406;2022-07-29T00:33:41;17.20;99.90
13344;DHT22;6741;48.964;9.406;2022-07-29T00:36:07;17.20;99.90
13344;DHT22;6741;48.964;9.406;2022-07-29T00:38:33;17.10;99.90
13344;DHT22;6741;48.964;9.406;2022-07-29T00:41:00;17.00;99.90
13344;DHT22;6741;48.964;9.406;2022-07-29T00:43:27;17.00;99.90
13344;DHT22;6741;48.964;9.406;2022-07-29T00:45:56;16.90;99.90
13344;DHT22;6741;48.964;9.406;2022-07-29T00:48:22;16.80;99.90
13344;DHT22;6741;48.964;9.406;2022-07-29T00:50:49;16.80;99.90
13344;DHT22;6741;48.964;9.406;2022-07-29T00:53:17;16.70;99.90
13344;DHT22;6741;48.964;9.406;2022-07-29T00:55:43;16.70;99.90
13344;DHT22;6741;48.964;9.406;2022-07-29T00:58:12;16.60;99.90
13344;DHT22;6741;48.964;9.406;2022-07-29T01:00:40;16.50;99.90
13344;DHT22;6741;48.964;9.406;2022-07-29T01:03:09;16.50;99.90
13344;DHT22;6741;48.964;9.406;2022-07-29T01:05:36;16.40;99.90
13344;DHT22;6741;48.964;9.406;2022-07-29T01:08:03;16.40;99.90
13344;DHT22;6741;48.964;9.406;2022-07-29T01:10:30;16.30;99.90
13344;DHT22;6741;48.964;9.406;2022-07-29T01:12:58;16.30;99.90
13344;DHT22;6741;48.964;9.406;2022-07-29T01:15:26;16.30;99.90
13344;DHT22;6741;48.964;9.406;2022-07-29T01:18:00;16.20;99.90
13344;DHT22;6741;48.964;9.406;2022-07-29T01:20:44;16.20;99.90
13344;DHT22;6741;48.964;9.406;2022-07-29T01:23:48;16.20;99.90
13344;DHT22;6741;48.964;9.406;2022-07-29T01:26:35;16.10;99.90
13344;DHT22;6741;48.964;9.406;2022-07-29T01:29:11;16.10;99.90
13344;DHT22;6741;48.964;9.406;2022-07-29T01:31:43;16.20;99.90
13344;DHT22;6741;48.964;9.406;2022-07-29T01:34:16;16.10;99.90
13344;DHT22;6741;48.964;9.406;2022-07-29T01:36:48;16.10;99.90
13344;DHT22;6741;48.964;9.406;2022-07-29T01:39:19;16.10;99.90
13344;DHT22;6741;48.964;9.406;2022-07-29T01:41:51;16.10;99.90
13344;DHT22;6741;48.964;9.406;2022-07-29T01:44:26;16.00;99.90
13344;DHT22;6741;48.964;9.406;2022-07-29T01:46:57;16.10;99.90
13344;DHT22;6741;48.964;9.406;2022-07-29T01:49:28;16.00;99.90
13344;DHT22;6741;48.964;9.406;2022-07-29T01:51:58;16.00;99.90
13344;DHT22;6741;48.964;9.406;2022-07-29T01:54:30;16.00;99.90
13344;DHT22;6741;48.964;9.406;2022-07-29T01:56:59;16.00;99.90
13344;DHT22;6741;48.964;9.406;2022-07-29T01:59:29;16.00;99.90
13344;DHT22;6741;48.964;9.406;2022-07-29T02:01:58;16.00;99.90
13344;DHT22;6741;48.964;9.406;2022-07-29T02:04:26;16.00;99.90
13344;DHT22;6741;48.964;9.406;2022-07-29T02:06:58;16.00;99.90
13344;DHT22;6741;48.964;9.406;2022-07-29T02:09:27;16.00;99.90
13344;DHT22;6741;48.964;9.406;2022-07-29T02:11:56;16.00;99.90
13344;DHT22;6741;48.964;9.406;2022-07-29T02:14:24;15.90;99.90
13344;DHT22;6741;48.964;9.406;2022-07-29T02:16:56;15.90;99.90
13344;DHT22;6741;48.964;9.406;2022-07-29T02:19:25;15.90;99.90
13344;DHT22;6741;48.964;9.406;2022-07-29T02:21:53;15.90;99.90
13344;DHT22;6741;48.964;9.406;2022-07-29T02:24:23;15.90;99.90
13344;DHT22;6741;48.964;9.406;2022-07-29T02:26:52;15.80;99.90
13344;DHT22;6741;48.964;9.406;2022-07-29T02:29:22;15.80;99.90
13344;DHT22;6741;48.964;9.406;2022-07-29T02:31:50;15.80;99.90
13344;DHT22;6741;48.964;9.406;2022-07-29T02:34:20;15.80;99.90
13344;DHT22;6741;48.964;9.406;2022-07-29T02:36:48;15.80;99.90
13344;DHT22;6741;48.964;9.406;2022-07-29T02:39:17;15.80;99.90
13344;DHT22;6741;48.964;9.406;2022-07-29T02:41:48;15.70;99.90
13344;DHT22;6741;48.964;9.406;2022-07-29T02:44:17;15.70;99.90
13344;DHT22;6741;48.964;9.406;2022-07-29T02:46:49;15.60;99.90
13344;DHT22;6741;48.964;9.406;2022-07-29T02:49:24;15.70;99.90
13344;DHT22;6741;48.964;9.406;2022-07-29T02:52:00;15.70;99.90
13344;DHT22;6741;48.964;9.406;2022-07-29T02:54:31;15.70;99.90
13344;DHT22;6741;48.964;9.406;2022-07-29T02:57:06;15.70;99.90
13344;DHT22;6741;48.964;9.406;2022-07-29T02:59:36;15.70;99.90
13344;DHT22;6741;48.964;9.406;2022-07-29T03:02:06;15.70;99.90
13344;DHT22;6741;48.964;9.406;2022-07-29T03:04:36;15.60;99.90
13344;DHT22;6741;48.964;9.406;2022-07-29T03:07:04;15.60;99.90
13344;DHT22;6741;48.964;9.406;2022-07-29T03:09:31;15.60;99.90
13344;DHT22;6741;48.964;9.406;2022-07-29T03:12:00;15.50;99.90
13344;DHT22;6741;48.964;9.406;2022-07-29T03:14:28;15.50;99.90
13344;DHT22;6741;48.964;9.406;2022-07-29T03:16:55;15.50;99.90
13344;DHT22;6741;48.964;9.406;2022-07-29T03:19:22;15.40;99.90
13344;DHT22;6741;48.964;9.406;2022-07-29T03:21:51;15.40;99.90
13344;DHT22;6741;48.964;9.406;2022-07-29T03:24:32;15.30;99.90
13344;DHT22;6741;48.964;9.406;2022-07-29T03:26:59;15.20;99.90
13344;DHT22;6741;48.964;9.406;2022-07-29T03:29:27;15.30;99.90
13344;DHT22;6741;48.964;9.406;2022-07-29T03:31:54;15.20;99.90
13344;DHT22;6741;48.964;9.406;2022-07-29T03:34:21;15.20;99.90
13344;DHT22;6741;48.964;9.406;2022-07-29T03:36:48;15.20;99.90
13344;DHT22;6741;48.964;9.406;2022-07-29T03:39:20;15.10;99.90
13344;DHT22;6741;48.964;9.406;2022-07-29T03:41:50;15.10;99.90
13344;DHT22;6741;48.964;9.406;2022-07-29T03:44:19;15.10;99.90
13344;DHT22;6741;48.964;9.406;2022-07-29T03:46:49;15.10;99.90
13344;DHT22;6741;48.964;9.406;2022-07-29T03:49:18;15.10;99.90
13344;DHT22;6741;48.964;9.406;2022-07-29T03:51:46;15.10;99.90
13344;DHT22;6741;48.964;9.406;2022-07-29T03:54:13;15.10;99.90
13344;DHT22;6741;48.964;9.406;2022-07-29T03:56:45;15.20;99.90
13344;DHT22;6741;48.964;9.406;2022-07-29T03:59:13;15.10;99.90
13344;DHT22;6741;48.964;9.406;2022-07-29T04:01:42;15.20;99.90
13344;DHT22;6741;48.964;9.406;2022-07-29T04:04:10;15.20;99.90
13344;DHT22;6741;48.964;9.406;2022-07-29T04:06:39;15.30;99.90
13344;DHT22;6741;48.964;9.406;2022-07-29T04:09:06;15.30;99.90
13344;DHT22;6741;48.964;9.406;2022-07-29T04:11:35;15.30;99.90
13344;DHT22;6741;48.964;9.406;2022-07-29T04:14:04;15.40;99.90
13344;DHT22;6741;48.964;9.406;2022-07-29T04:16:31;15.40;99.90
13344;DHT22;6741;48.964;9.406;2022-07-29T04:18:58;15.50;99.90
13344;DHT22;6741;48.964;9.406;2022-07-29T04:21:25;15.50;99.90
13344;DHT22;6741;48.964;9.406;2022-07-29T04:23:52;15.60;99.90
13344;DHT22;6741;48.964;9.406;2022-07-29T04:26:19;15.70;99.90
13344;DHT22;6741;48.964;9.406;2022-07-29T04:28:46;15.80;99.90
13344;DHT22;6741;48.964;9.406;2022-07-29T04:31:14;15.80;99.90
13344;DHT22;6741;48.964;9.406;2022-07-29T04:33:41;15.80;99.90
13344;DHT22;6741;48.964;9.406;2022-07-29T04:36:08;15.80;99.90
13344;DHT22;6741;48.964;9.406;2022-07-29T04:38:37;15.80;99.90
13344;DHT22;6741;48.964;9.406;2022-07-29T04:41:04;15.90;99.90
13344;DHT22;6741;48.964;9.406;2022-07-29T04:43:32;15.90;99.90
13344;DHT22;6741;48.964;9.406;2022-07-29T04:45:59;15.90;99.90
13344;DHT22;6741;48.964;9.406;2022-07-29T04:48:27;15.90;99.90
13344;DHT22;6741;48.964;9.406;2022-07-29T04:50:55;15.80;99.90
13344;DHT22;6741;48.964;9.406;2022-07-29T04:53:22;15.80;99.90
13344;DHT22;6741;48.964;9.406;2022-07-29T04:55:49;15.80;99.90
13344;DHT22;6741;48.964;9.406;2022-07-29T04:58:16;15.80;99.90
13344;DHT22;6741;48.964;9.406;2022-07-29T05:00:43;15.80;99.90
13344;DHT22;6741;48.964;9.406;2022-07-29T05:03:10;15.90;99.90
13344;DHT22;6741;48.964;9.406;2022-07-29T05:05:38;16.00;99.90
13344;DHT22;6741;48.964;9.406;2022-07-29T05:08:06;16.00;99.90
13344;DHT22;6741;48.964;9.406;2022-07-29T05:10:33;16.00;99.90
13344;DHT22;6741;48.964;9.406;2022-07-29T05:13:04;16.00;99.90
13344;DHT22;6741;48.964;9.406;2022-07-29T05:15:31;16.10;99.90
13344;DHT22;6741;48.964;9.406;2022-07-29T05:17:58;16.20;99.90
13344;DHT22;6741;48.964;9.406;2022-07-29T05:20:25;16.30;99.90
13344;DHT22;6741;48.964;9.406;2022-07-29T05:22:55;16.50;99.90
13344;DHT22;6741;48.964;9.406;2022-07-29T05:25:23;16.60;99.90
13344;DHT22;6741;48.964;9.406;2022-07-29T05:27:50;16.70;99.90
13344;DHT22;6741;48.964;9.406;2022-07-29T05:30:17;16.80;99.90
13344;DHT22;6741;48.964;9.406;2022-07-29T05:32:44;16.90;99.90
13344;DHT22;6741;48.964;9.406;2022-07-29T05:35:11;17.00;99.90
13344;DHT22;6741;48.964;9.406;2022-07-29T05:37:38;17.10;99.90
13344;DHT22;6741;48.964;9.406;2022-07-29T05:40:09;17.30;99.90
13344;DHT22;6741;48.964;9.406;2022-07-29T05:42:37;17.40;99.90
13344;DHT22;6741;48.964;9.406;2022-07-29T05:45:05;17.50;99.90
13344;DHT22;6741;48.964;9.406;2022-07-29T05:47:32;17.70;99.90
13344;DHT22;6741;48.964;9.406;2022-07-29T05:49:59;17.80;99.90
13344;DHT22;6741;48.964;9.406;2022-07-29T05:52:26;17.80;99.90
13344;DHT22;6741;48.964;9.406;2022-07-29T05:54:53;17.90;99.90
13344;DHT22;6741;48.964;9.406;2022-07-29T05:57:23;17.90;99.90
13344;DHT22;6741;48.964;9.406;2022-07-29T05:59:50;17.90;99.90
13344;DHT22;6741;48.964;9.406;2022-07-29T06:02:17;17.90;99.90
13344;DHT22;6741;48.964;9.406;2022-07-29T06:04:45;18.00;99.90
13344;DHT22;6741;48.964;9.406;2022-07-29T06:07:12;18.00;99.90
13344;DHT22;6741;48.964;9.406;2022-07-29T06:09:40;18.10;99.90
13344;DHT22;6741;48.964;9.406;2022-07-29T06:12:07;18.20;99.90
13344;DHT22;6741;48.964;9.406;2022-07-29T06:14:35;18.30;99.90
13344;DHT22;6741;48.964;9.406;2022-07-29T06:17:03;18.40;99.90
13344;DHT22;6741;48.964;9.406;2022-07-29T06:19:31;18.50;99.90
13344;DHT22;6741;48.964;9.406;2022-07-29T06:22:02;18.60;99.90
13344;DHT22;6741;48.964;9.406;2022-07-29T06:24:29;18.90;99.90
13344;DHT22;6741;48.964;9.406;2022-07-29T06:26:56;19.00;99.90
13344;DHT22;6741;48.964;9.406;2022-07-29T06:29:23;19.20;99.90
13344;DHT22;6741;48.964;9.406;2022-07-29T06:31:52;19.30;99.90
13344;DHT22;6741;48.964;9.406;2022-07-29T06:34:19;19.50;99.90
13344;DHT22;6741;48.964;9.406;2022-07-29T06:36:46;19.60;99.90
13344;DHT22;6741;48.964;9.406;2022-07-29T06:39:14;19.80;99.90
13344;DHT22;6741;48.964;9.406;2022-07-29T06:41:41;20.10;99.90
13344;DHT22;6741;48.964;9.406;2022-07-29T06:44:09;20.30;99.90
13344;DHT22;6741;48.964;9.406;2022-07-29T06:46:36;20.60;99.90
13344;DHT22;6741;48.964;9.406;2022-07-29T06:49:04;20.80;99.90
13344;DHT22;6741;48.964;9.406;2022-07-29T06:51:31;20.70;99.90
13344;DHT22;6741;48.964;9.406;2022-07-29T06:53:58;20.70;99.90
13344;DHT22;6741;48.964;9.406;2022-07-29T06:56:26;20.80;99.90
13344;DHT22;6741;48.964;9.406;2022-07-29T06:58:53;20.90;99.90
13344;DHT22;6741;48.964;9.406;2022-07-29T07:01:20;21.00;99.90
13344;DHT22;6741;48.964;9.406;2022-07-29T07:03:47;21.10;99.90
13344;DHT22;6741;48.964;9.406;2022-07-29T07:06:15;21.20;99.90
13344;DHT22;6741;48.964;9.406;2022-07-29T07:08:42;21.30;99.90
13344;DHT22;6741;48.964;9.406;2022-07-29T07:11:09;21.30;99.90
13344;DHT22;6741;48.964;9.406;2022-07-29T07:13:36;21.40;99.90
13344;DHT22;6741;48.964;9.406;2022-07-29T07:16:03;21.50;99.90
13344;DHT22;6741;48.964;9.406;2022-07-29T07:18:31;21.60;99.90
13344;DHT22;6741;48.964;9.406;2022-07-29T07:20:58;21.70;99.90
13344;DHT22;6741;48.964;9.406;2022-07-29T07:23:27;22.00;99.90
13344;DHT22;6741;48.964;9.406;2022-07-29T07:25:53;22.10;99.90
13344;DHT22;6741;48.964;9.406;2022-07-29T07:28:21;22.30;99.90
13344;DHT22;6741;48.964;9.406;2022-07-29T07:30:49;22.50;99.90
13344;DHT22;6741;48.964;9.406;2022-07-29T07:33:15;22.60;99.90
13344;DHT22;6741;48.964;9.406;2022-07-29T07:35:42;22.50;99.90
13344;DHT22;6741;48.964;9.406;2022-07-29T07:38:10;22.60;99.90
13344;DHT22;6741;48.964;9.406;2022-07-29T07:40:38;22.60;99.90
13344;DHT22;6741;48.964;9.406;2022-07-29T07:43:05;22.70;99.90
13344;DHT22;6741;48.964;9.406;2022-07-29T07:45:32;22.80;99.90
13344;DHT22;6741;48.964;9.406;2022-07-29T07:47:59;22.60;99.90
13344;DHT22;6741;48.964;9.406;2022-07-29T07:50:26;22.60;99.90
13344;DHT22;6741;48.964;9.406;2022-07-29T07:52:54;22.80;99.90
13344;DHT22;6741;48.964;9.406;2022-07-29T07:55:23;22.90;99.90
13344;DHT22;6741;48.964;9.406;2022-07-29T07:57:51;23.30;99.90
13344;DHT22;6741;48.964;9.406;2022-07-29T08:00:19;23.60;99.90
13344;DHT22;6741;48.964;9.406;2022-07-29T08:02:46;23.70;99.90
13344;DHT22;6741;48.964;9.406;2022-07-29T08:05:13;23.70;99.90
13344;DHT22;6741;48.964;9.406;2022-07-29T08:07:43;23.60;99.90
13344;DHT22;6741;48.964;9.406;2022-07-29T08:10:11;23.90;99.90
13344;DHT22;6741;48.964;9.406;2022-07-29T08:12:38;23.80;99.90
13344;DHT22;6741;48.964;9.406;2022-07-29T08:15:08;23.80;99.90
13344;DHT22;6741;48.964;9.406;2022-07-29T08:17:35;24.00;99.90
13344;DHT22;6741;48.964;9.406;2022-07-29T08:20:03;24.20;99.90
13344;DHT22;6741;48.964;9.406;2022-07-29T08:22:30;24.50;99.90
13344;DHT22;6741;48.964;9.406;2022-07-29T08:24:57;25.00;99.90
13344;DHT22;6741;48.964;9.406;2022-07-29T08:27:24;25.20;99.90
13344;DHT22;6741;48.964;9.406;2022-07-29T08:29:52;25.60;99.90
13344;DHT22;6741;48.964;9.406;2022-07-29T08:32:22;25.60;99.90
13344;DHT22;6741;48.964;9.406;2022-07-29T08:34:49;25.70;99.90
13344;DHT22;6741;48.964;9.406;2022-07-29T08:37:16;25.20;99.90
13344;DHT22;6741;48.964;9.406;2022-07-29T08:39:43;24.40;99.90
13344;DHT22;6741;48.964;9.406;2022-07-29T08:42:11;24.20;99.90
13344;DHT22;6741;48.964;9.406;2022-07-29T08:44:38;24.40;99.90
13344;DHT22;6741;48.964;9.406;2022-07-29T08:49:42;24.70;99.90
13344;DHT22;6741;48.964;9.406;2022-07-29T08:52:11;24.70;99.90
13344;DHT22;6741;48.964;9.406;2022-07-29T08:54:39;24.80;99.90
13344;DHT22;6741;48.964;9.406;2022-07-29T08:57:06;24.60;99.90
13344;DHT22;6741;48.964;9.406;2022-07-29T08:59:34;24.60;99.90
13344;DHT22;6741;48.964;9.406;2022-07-29T09:02:04;24.60;99.90
13344;DHT22;6741;48.964;9.406;2022-07-29T09:04:34;24.80;99.90
13344;DHT22;6741;48.964;9.406;2022-07-29T09:07:04;25.10;99.90
13344;DHT22;6741;48.964;9.406;2022-07-29T09:09:33;25.20;99.90
13344;DHT22;6741;48.964;9.406;2022-07-29T09:12:01;25.40;99.90
13344;DHT22;6741;48.964;9.406;2022-07-29T09:14:29;25.50;99.90
13344;DHT22;6741;48.964;9.406;2022-07-29T09:16:58;25.50;99.90
13344;DHT22;6741;48.964;9.406;2022-07-29T09:19:27;25.30;99.90
13344;DHT22;6741;48.964;9.406;2022-07-29T09:21:55;25.40;99.90
13344;DHT22;6741;48.964;9.406;2022-07-29T09:24:27;25.60;99.90
13344;DHT22;6741;48.964;9.406;2022-07-29T09:27:02;25.60;99.90
13344;DHT22;6741;48.964;9.406;2022-07-29T09:29:29;25.60;99.90
13344;DHT22;6741;48.964;9.406;2022-07-29T09:31:57;25.90;99.90
13344;DHT22;6741;48.964;9.406;2022-07-29T09:34:25;25.70;99.90
13344;DHT22;6741;48.964;9.406;2022-07-29T09:36:54;25.70;99.90
13344;DHT22;6741;48.964;9.406;2022-07-29T09:39:30;25.60;99.90
13344;DHT22;6741;48.964;9.406;2022-07-29T09:41:59;25.90;99.90
13344;DHT22;6741;48.964;9.406;2022-07-29T09:44:26;26.00;99.90
13344;DHT22;6741;48.964;9.406;2022-07-29T09:46:55;26.40;99.90
13344;DHT22;6741;48.964;9.406;2022-07-29T09:49:22;26.20;99.90
13344;DHT22;6741;48.964;9.406;2022-07-29T09:52:00;26.30;99.90
13344;DHT22;6741;48.964;9.406;2022-07-29T09:54:28;26.00;99.90
13344;DHT22;6741;48.964;9.406;2022-07-29T09:57:00;25.60;99.90
13344;DHT22;6741;48.964;9.406;2022-07-29T09:59:26;26.20;99.90
13344;DHT22;6741;48.964;9.406;2022-07-29T10:01:53;26.60;99.90
13344;DHT22;6741;48.964;9.406;2022-07-29T10:04:20;27.00;99.90
13344;DHT22;6741;48.964;9.406;2022-07-29T10:06:57;27.20;99.90
13344;DHT22;6741;48.964;9.406;2022-07-29T10:09:25;27.50;99.90
13344;DHT22;6741;48.964;9.406;2022-07-29T10:12:07;27.90;99.90
13344;DHT22;6741;48.964;9.406;2022-07-29T10:14:35;27.90;99.90
13344;DHT22;6741;48.964;9.406;2022-07-29T10:17:03;28.00;99.90
13344;DHT22;6741;48.964;9.406;2022-07-29T10:19:31;28.20;99.90
13344;DHT22;6741;48.964;9.406;2022-07-29T10:21:59;28.00;99.90
13344;DHT22;6741;48.964;9.406;2022-07-29T10:24:27;28.10;99.90
13344;DHT22;6741;48.964;9.406;2022-07-29T10:26:54;28.20;99.90
13344;DHT22;6741;48.964;9.406;2022-07-29T10:29:23;28.80;99.90
13344;DHT22;6741;48.964;9.406;2022-07-29T10:32:16;28.70;99.90
13344;DHT22;6741;48.964;9.406;2022-07-29T10:35:06;29.10;99.90
13344;DHT22;6741;48.964;9.406;2022-07-29T10:37:46;28.10;99.90
13344;DHT22;6741;48.964;9.406;2022-07-29T10:40:25;27.50;99.90
13344;DHT22;6741;48.964;9.406;2022-07-29T10:43:18;27.60;99.90
13344;DHT22;6741;48.964;9.406;2022-07-29T10:45:49;27.90;99.90
13344;DHT22;6741;48.964;9.406;2022-07-29T10:48:22;28.30;99.90
13344;DHT22;6741;48.964;9.406;2022-07-29T10:50:56;28.20;99.90
13344;DHT22;6741;48.964;9.406;2022-07-29T10:53:25;28.30;99.90
13344;DHT22;6741;48.964;9.406;2022-07-29T10:56:23;27.90;99.90
13344;DHT22;6741;48.964;9.406;2022-07-29T10:59:24;27.50;99.90
13344;DHT22;6741;48.964;9.406;2022-07-29T11:01:53;27.40;99.90
13344;DHT22;6741;48.964;9.406;2022-07-29T11:04:59;26.70;99.90
13344;DHT22;6741;48.964;9.406;2022-07-29T11:07:27;26.40;99.90
13344;DHT22;6741;48.964;9.406;2022-07-29T11:10:20;26.40;99.90
13344;DHT22;6741;48.964;9.406;2022-07-29T11:12:48;26.30;99.90
13344;DHT22;6741;48.964;9.406;2022-07-29T11:15:16;26.10;99.90
13344;DHT22;6741;48.964;9.406;2022-07-29T11:18:08;26.10;99.90
13344;DHT22;6741;48.964;9.406;2022-07-29T11:20:37;26.10;99.90
13344;DHT22;6741;48.964;9.406;2022-07-29T11:23:25;25.90;99.90
13344;DHT22;6741;48.964;9.406;2022-07-29T11:26:16;25.90;99.90
13344;DHT22;6741;48.964;9.406;2022-07-29T11:29:02;25.90;99.90
13344;DHT22;6741;48.964;9.406;2022-07-29T11:31:38;26.00;99.90
13344;DHT22;6741;48.964;9.406;2022-07-29T11:34:18;26.00;99.90
13344;DHT22;6741;48.964;9.406;2022-07-29T11:37:17;26.00;99.90
13344;DHT22;6741;48.964;9.406;2022-07-29T11:39:46;26.10;99.90
13344;DHT22;6741;48.964;9.406;2022-07-29T11:42:44;26.00;99.90
13344;DHT22;6741;48.964;9.406;2022-07-29T11:45:18;26.00;99.90
13344;DHT22;6741;48.964;9.406;2022-07-29T11:47:51;25.90;99.90
13344;DHT22;6741;48.964;9.406;2022-07-29T11:50:31;25.80;99.90
13344;DHT22;6741;48.964;9.406;2022-07-29T11:52:59;25.90;99.90
13344;DHT22;6741;48.964;9.406;2022-07-29T11:55:27;26.00;99.90
13344;DHT22;6741;48.964;9.406;2022-07-29T11:57:55;26.00;99.90
13344;DHT22;6741;48.964;9.406;2022-07-29T12:00:28;26.50;99.90
13344;DHT22;6741;48.964;9.406;2022-07-29T12:02:56;27.40;99.90
13344;DHT22;6741;48.964;9.406;2022-07-29T12:05:35;28.20;99.90
13344;DHT22;6741;48.964;9.406;2022-07-29T12:08:13;29.10;99.90
13344;DHT22;6741;48.964;9.406;2022-07-29T12:10:42;28.90;99.90
13344;DHT22;6741;48.964;9.406;2022-07-29T12:13:09;28.90;99.90
13344;DHT22;6741;48.964;9.406;2022-07-29T12:15:37;28.90;99.90
13344;DHT22;6741;48.964;9.406;2022-07-29T12:18:11;29.20;99.90
13344;DHT22;6741;48.964;9.406;2022-07-29T12:20:39;29.20;99.90
13344;DHT22;6741;48.964;9.406;2022-07-29T12:23:07;29.20;99.90
13344;DHT22;6741;48.964;9.406;2022-07-29T12:25:38;29.00;99.90
13344;DHT22;6741;48.964;9.406;2022-07-29T12:28:08;29.40;99.90
13344;DHT22;6741;48.964;9.406;2022-07-29T12:30:40;30.30;99.90
13344;DHT22;6741;48.964;9.406;2022-07-29T12:33:13;31.00;99.90
13344;DHT22;6741;48.964;9.406;2022-07-29T12:35:42;31.00;99.90
13344;DHT22;6741;48.964;9.406;2022-07-29T12:38:10;31.00;99.90
13344;DHT22;6741;48.964;9.406;2022-07-29T12:40:38;30.90;99.90
13344;DHT22;6741;48.964;9.406;2022-07-29T12:43:06;30.80;99.90
13344;DHT22;6741;48.964;9.406;2022-07-29T12:45:35;30.20;99.90
13344;DHT22;6741;48.964;9.406;2022-07-29T12:48:02;29.90;99.90
13344;DHT22;6741;48.964;9.406;2022-07-29T12:50:30;30.10;99.90
13344;DHT22;6741;48.964;9.406;2022-07-29T12:53:10;29.50;99.90
13344;DHT22;6741;48.964;9.406;2022-07-29T12:55:44;29.20;99.90
13344;DHT22;6741;48.964;9.406;2022-07-29T12:58:29;29.50;99.90
13344;DHT22;6741;48.964;9.406;2022-07-29T13:01:09;29.80;99.90
13344;DHT22;6741;48.964;9.406;2022-07-29T13:03:48;30.90;99.90
13344;DHT22;6741;48.964;9.406;2022-07-29T13:06:29;30.80;99.90
13344;DHT22;6741;48.964;9.406;2022-07-29T13:09:06;30.20;99.90
13344;DHT22;6741;48.964;9.406;2022-07-29T13:11:35;29.60;99.90
13344;DHT22;6741;48.964;9.406;2022-07-29T13:14:03;29.00;99.90
13344;DHT22;6741;48.964;9.406;2022-07-29T13:16:30;28.70;99.90
13344;DHT22;6741;48.964;9.406;2022-07-29T13:19:05;28.80;99.90
13344;DHT22;6741;48.964;9.406;2022-07-29T13:21:32;29.10;99.90
13344;DHT22;6741;48.964;9.406;2022-07-29T13:23:59;28.70;99.90
13344;DHT22;6741;48.964;9.406;2022-07-29T13:26:27;28.70;99.90
13344;DHT22;6741;48.964;9.406;2022-07-29T13:28:54;28.70;99.90
13344;DHT22;6741;48.964;9.406;2022-07-29T13:31:21;27.90;99.90
13344;DHT22;6741;48.964;9.406;2022-07-29T13:33:48;27.10;99.90
13344;DHT22;6741;48.964;9.406;2022-07-29T13:36:15;26.70;99.90
13344;DHT22;6741;48.964;9.406;2022-07-29T13:38:43;26.30;99.90
13344;DHT22;6741;48.964;9.406;2022-07-29T13:41:10;26.10;99.90
13344;DHT22;6741;48.964;9.406;2022-07-29T13:43:38;25.90;99.90
13344;DHT22;6741;48.964;9.406;2022-07-29T13:46:05;25.80;99.90
13344;DHT22;6741;48.964;9.406;2022-07-29T13:48:32;25.60;99.90
13344;DHT22;6741;48.964;9.406;2022-07-29T13:50:59;25.40;99.90
13344;DHT22;6741;48.964;9.406;2022-07-29T13:53:26;25.40;99.90
13344;DHT22;6741;48.964;9.406;2022-07-29T13:55:53;25.30;99.90
13344;DHT22;6741;48.964;9.406;2022-07-29T13:58:20;25.10;99.90
13344;DHT22;6741;48.964;9.406;2022-07-29T14:00:48;25.20;99.90
13344;DHT22;6741;48.964;9.406;2022-07-29T14:03:15;25.20;99.90
13344;DHT22;6741;48.964;9.406;2022-07-29T14:05:42;25.40;99.90
13344;DHT22;6741;48.964;9.406;2022-07-29T14:08:09;25.50;99.90
13344;DHT22;6741;48.964;9.406;2022-07-29T14:10:36;25.80;99.90
13344;DHT22;6741;48.964;9.406;2022-07-29T14:13:03;25.90;99.90
13344;DHT22;6741;48.964;9.406;2022-07-29T14:15:30;25.60;99.90
13344;DHT22;6741;48.964;9.406;2022-07-29T14:17:58;25.10;99.90
13344;DHT22;6741;48.964;9.406;2022-07-29T14:20:25;24.90;99.90
13344;DHT22;6741;48.964;9.406;2022-07-29T14:22:53;24.60;99.90
13344;DHT22;6741;48.964;9.406;2022-07-29T14:25:20;24.70;99.90
13344;DHT22;6741;48.964;9.406;2022-07-29T14:27:47;24.60;99.90
13344;DHT22;6741;48.964;9.406;2022-07-29T14:30:14;24.50;99.90
13344;DHT22;6741;48.964;9.406;2022-07-29T14:32:41;24.60;99.90
13344;DHT22;6741;48.964;9.406;2022-07-29T14:35:09;24.70;99.90
13344;DHT22;6741;48.964;9.406;2022-07-29T14:37:36;24.70;99.90
13344;DHT22;6741;48.964;9.406;2022-07-29T14:40:05;24.60;99.90
13344;DHT22;6741;48.964;9.406;2022-07-29T14:42:32;24.80;99.90
13344;DHT22;6741;48.964;9.406;2022-07-29T14:44:59;24.80;99.90
13344;DHT22;6741;48.964;9.406;2022-07-29T14:47:26;25.00;99.90
13344;DHT22;6741;48.964;9.406;2022-07-29T14:49:52;25.20;99.90
13344;DHT22;6741;48.964;9.406;2022-07-29T14:52:21;25.30;99.90
13344;DHT22;6741;48.964;9.406;2022-07-29T14:54:48;25.30;99.90
13344;DHT22;6741;48.964;9.406;2022-07-29T14:57:15;24.80;99.90
13344;DHT22;6741;48.964;9.406;2022-07-29T14:59:42;24.90;99.90
13344;DHT22;6741;48.964;9.406;2022-07-29T15:02:09;24.90;99.90
13344;DHT22;6741;48.964;9.406;2022-07-29T15:04:36;24.70;99.90
13344;DHT22;6741;48.964;9.406;2022-07-29T15:07:03;24.60;99.90
13344;DHT22;6741;48.964;9.406;2022-07-29T15:09:31;24.50;99.90
13344;DHT22;6741;48.964;9.406;2022-07-29T15:11:58;24.60;99.90
13344;DHT22;6741;48.964;9.406;2022-07-29T15:14:25;24.30;99.90
13344;DHT22;6741;48.964;9.406;2022-07-29T15:16:52;24.30;99.90
13344;DHT22;6741;48.964;9.406;2022-07-29T15:19:19;24.40;99.90
13344;DHT22;6741;48.964;9.406;2022-07-29T15:21:46;24.40;99.90
13344;DHT22;6741;48.964;9.406;2022-07-29T15:24:13;24.50;99.90
13344;DHT22;6741;48.964;9.406;2022-07-29T15:26:41;24.60;99.90
13344;DHT22;6741;48.964;9.406;2022-07-29T15:29:08;24.60;99.90
13344;DHT22;6741;48.964;9.406;2022-07-29T15:31:35;24.50;99.90
13344;DHT22;6741;48.964;9.406;2022-07-29T15:34:03;24.50;99.90
13344;DHT22;6741;48.964;9.406;2022-07-29T15:36:30;24.40;99.90
13344;DHT22;6741;48.964;9.406;2022-07-29T15:38:57;24.40;99.90
13344;DHT22;6741;48.964;9.406;2022-07-29T15:41:24;24.50;99.90
13344;DHT22;6741;48.964;9.406;2022-07-29T15:43:53;24.70;99.90
13344;DHT22;6741;48.964;9.406;2022-07-29T15:46:20;24.60;99.90
13344;DHT22;6741;48.964;9.406;2022-07-29T15:49:05;24.80;99.90
13344;DHT22;6741;48.964;9.406;2022-07-29T15:51:33;24.70;99.90
13344;DHT22;6741;48.964;9.406;2022-07-29T15:54:00;24.80;99.90
13344;DHT22;6741;48.964;9.406;2022-07-29T15:56:27;24.90;99.90
13344;DHT22;6741;48.964;9.406;2022-07-29T15:58:56;25.00;99.90
13344;DHT22;6741;48.964;9.406;2022-07-29T16:01:23;25.10;99.90
13344;DHT22;6741;48.964;9.406;2022-07-29T16:03:51;25.30;99.90